Search for airport 
image banner adimage banner adimage banner ad
image banner ad

86CN - Mercy Medical Center Merced

Located in Merced, United States

ICAO - 86CN, IATA -

Data provided by Airmate  

General information

Coordinates: N37°20'27" W120°28'0"
Elevation is 194 feet MSL.
 
View others Airports in California

Operational data

Special qualification required
Current time UTC:
Current local time:
Weather at : KMCE - Merced Rgnl/Macready Field ( 7 km )
METAR: KMCE 141253Z AUTO 33007KT 10SM CLR 17/16 A2997 RMK AO2 SLP147 T01720156
TAF: KMCE 141120Z 1412/1512 34010KT P6SM SKC FM150200 33013G19KT P6SM SKC
View NOTAMs / SUP AIP / TFR affecting this airport [VIEW]
Communications frequencies: [VIEW]

Runways:

Airport contact information

Address: Merced United States

Satellite view of 86CN